Terminal Aerodrome Forecast
Issued by NWS Upton, NY

Home | Current Version | Previous Version | Text Only | Print | Product List | Glossary On
Versions: 1 2 3 4 5 6 7 8 9 10 11 12 13 14 15 16 17 18 19 20 21 22 23 24 25 26 27 28 29 30 31 32 33
000
FTUS41 KOKX 281933 AAD
TAFISP
TAF AMD
KISP 281933Z 2820/2918 20012KT P6SM SCT015 SCT050
      TEMPO 2820/2821 BKN015
     FM282200 20012KT P6SM VCSH FEW020 BKN050
     FM290100 23004KT P6SM FEW100 BKN250
     FM290500 01004KT 6SM BR SKC
     FM291300 06007KT P6SM SKC=

USA.gov is the U.S. government's official web portal to all federal, state and local government web resources and services.